Time;durP1;ratioP1;P1;durP2;ratioP2;P2;SDS_P1;SDS_P2;PMS_P1;PMS_P2;Temp;Humidity;BMP_temperature;BMP_pressure;BME280_temperature;BME280_humidity;BME280_pressure;Samples;Min_cycle;Max_cycle;Signal;HPM_P1;HPM_P2
2023/10/27 00:00:58;;;;;;;4.53;2.57;;;16.70;90.00;;;;;;5062068;28;20461;-70
2023/10/27 00:03:25;;;;;;;5.73;3.60;;;16.70;90.00;;;;;;5041955;28;20476;-71
2023/10/27 00:05:51;;;;;;;6.53;3.43;;;16.70;90.40;;;;;;5041086;28;20576;-69
2023/10/27 00:08:18;;;;;;;11.00;3.30;;;16.70;90.10;;;;;;5054706;28;20452;-70
2023/10/27 00:10:47;;;;;;;8.70;4.00;;;16.70;90.10;;;;;;5056520;28;20475;-70
2023/10/27 00:13:14;;;;;;;9.40;3.47;;;16.70;90.10;;;;;;5056352;28;20456;-73
2023/10/27 00:15:41;;;;;;;8.73;3.30;;;16.70;90.10;;;;;;5061592;28;20527;-69
2023/10/27 00:18:08;;;;;;;8.50;3.13;;;16.70;90.10;;;;;;5061492;28;20452;-69
2023/10/27 00:20:34;;;;;;;5.53;2.73;;;16.60;90.10;;;;;;5052314;28;20463;-69
2023/10/27 00:23:03;;;;;;;5.30;2.93;;;16.50;90.10;;;;;;5051214;28;20831;-69
2023/10/27 00:25:30;;;;;;;7.90;3.30;;;16.40;90.20;;;;;;5050871;28;20925;-68
2023/10/27 00:27:58;;;;;;;6.23;2.87;;;16.50;90.20;;;;;;5049371;28;20974;-70
2023/10/27 00:30:25;;;;;;;7.37;3.20;;;16.40;90.20;;;;;;5039501;28;20476;-69
2023/10/27 00:32:52;;;;;;;6.77;2.70;;;16.40;90.10;;;;;;5051189;28;20950;-69
2023/10/27 00:35:19;;;;;;;7.13;2.50;;;16.40;90.10;;;;;;5049535;28;20456;-70
2023/10/27 00:37:46;;;;;;;8.10;4.20;;;16.30;90.00;;;;;;5050603;28;20471;-69
2023/10/27 00:40:13;;;;;;;8.40;3.30;;;16.20;90.10;;;;;;5049649;28;20449;-69
2023/10/27 00:42:41;;;;;;;4.60;3.00;;;16.20;90.30;;;;;;5034768;28;20849;-70
2023/10/27 00:45:10;;;;;;;6.30;2.47;;;16.10;90.30;;;;;;5035332;28;20483;-69
2023/10/27 00:47:37;;;;;;;5.23;2.87;;;16.10;90.40;;;;;;5038125;28;20460;-69
2023/10/27 00:50:04;;;;;;;5.20;2.47;;;16.20;90.30;;;;;;5053270;28;20456;-69
2023/10/27 00:52:32;;;;;;;3.57;2.30;;;16.20;90.20;;;;;;5034650;28;20469;-69
2023/10/27 00:55:01;;;;;;;5.77;2.20;;;16.20;90.20;;;;;;5071132;28;20462;-69
2023/10/27 00:57:29;;;;;;;7.57;2.30;;;16.20;90.20;;;;;;5074460;28;20439;-70
2023/10/27 00:59:56;;;;;;;5.33;3.10;;;16.20;90.10;;;;;;5070323;28;20452;-69
2023/10/27 01:02:24;;;;;;;3.93;2.23;;;16.10;90.10;;;;;;5054978;28;20467;-69
2023/10/27 01:04:52;;;;;;;6.00;2.47;;;16.10;90.20;;;;;;5054791;28;20555;-69
2023/10/27 01:07:21;;;;;;;6.90;2.50;;;16.10;90.30;;;;;;5062939;28;20576;-69
2023/10/27 01:09:49;;;;;;;7.33;2.93;;;16.20;90.40;;;;;;5035526;28;20812;-69
2023/10/27 01:12:15;;;;;;;8.17;2.80;;;16.10;90.20;;;;;;5053603;28;20472;-69
2023/10/27 01:14:43;;;;;;;6.37;2.50;;;16.10;90.30;;;;;;5054546;28;20444;-69
2023/10/27 01:17:10;;;;;;;8.13;3.50;;;16.00;90.30;;;;;;5051388;28;20544;-69
2023/10/27 01:19:38;;;;;;;5.03;2.57;;;16.00;90.50;;;;;;5044346;28;20453;-70
2023/10/27 01:22:05;;;;;;;3.87;2.63;;;16.00;90.80;;;;;;5047616;28;20448;-70
2023/10/27 01:24:36;;;;;;;3.93;2.40;;;16.00;90.40;;;;;;5054389;28;20559;-69
2023/10/27 01:27:03;;;;;;;4.30;2.10;;;16.10;90.60;;;;;;5051909;28;20527;-69
2023/10/27 01:29:30;;;;;;;6.20;2.40;;;16.10;90.50;;;;;;5040471;28;20498;-70
2023/10/27 01:31:57;;;;;;;6.47;2.17;;;16.10;90.40;;;;;;5054597;28;20448;-69
2023/10/27 01:34:24;;;;;;;7.07;2.23;;;16.10;90.40;;;;;;5050195;28;20453;-68
2023/10/27 01:36:51;;;;;;;5.83;2.00;;;16.10;90.40;;;;;;5034494;28;20449;-67
2023/10/27 01:39:18;;;;;;;4.80;2.17;;;16.10;90.40;;;;;;5034112;28;20455;-69
2023/10/27 01:41:47;;;;;;;5.63;2.07;;;16.00;90.30;;;;;;5038132;28;20491;-69
2023/10/27 01:44:14;;;;;;;5.57;2.00;;;16.00;90.60;;;;;;5074285;28;20625;-69
2023/10/27 01:46:40;;;;;;;7.87;2.27;;;16.00;90.60;;;;;;5074001;28;20574;-69
2023/10/27 01:49:07;;;;;;;7.73;2.03;;;16.00;90.60;;;;;;5055645;28;20448;-70
2023/10/27 01:51:34;;;;;;;5.67;2.93;;;16.00;90.60;;;;;;5047744;28;21029;-70
2023/10/27 01:54:01;;;;;;;7.13;2.10;;;16.00;90.60;;;;;;5058475;28;20453;-69
2023/10/27 01:56:30;;;;;;;5.43;2.03;;;16.00;90.60;;;;;;5037646;28;20441;-69
2023/10/27 01:58:58;;;;;;;5.47;1.90;;;16.10;90.50;;;;;;5068964;28;20454;-69
2023/10/27 02:01:25;;;;;;;4.17;2.03;;;16.10;90.40;;;;;;5053077;28;20457;-70
2023/10/27 02:03:52;;;;;;;6.43;2.30;;;16.10;90.40;;;;;;5051838;28;20840;-69
2023/10/27 02:06:23;;;;;;;4.57;1.87;;;16.10;90.40;;;;;;5053382;28;20566;-70
2023/10/27 02:08:50;;;;;;;4.90;1.70;;;16.10;90.40;;;;;;5041427;28;20973;-69
2023/10/27 02:11:17;;;;;;;6.40;2.80;;;16.10;90.40;;;;;;5046891;28;20448;-69
2023/10/27 02:13:44;;;;;;;7.47;3.00;;;16.00;90.40;;;;;;5051653;28;20449;-69
2023/10/27 02:16:12;;;;;;;5.30;2.10;;;16.00;90.60;;;;;;5038629;28;20960;-70
2023/10/27 02:18:39;;;;;;;4.50;2.23;;;15.90;90.60;;;;;;5053518;28;20440;-70
2023/10/27 02:21:05;;;;;;;4.53;2.30;;;15.90;90.60;;;;;;5049773;28;20476;-69
2023/10/27 02:23:32;;;;;;;3.90;2.20;;;15.90;90.70;;;;;;5038140;28;20449;-69
2023/10/27 02:25:59;;;;;;;7.33;3.20;;;15.80;91.20;;;;;;5043908;28;20495;-70
2023/10/27 02:28:25;;;;;;;7.23;2.83;;;15.80;90.90;;;;;;5053267;28;20440;-69
2023/10/27 02:30:52;;;;;;;4.00;2.57;;;15.80;90.90;;;;;;5044120;28;20456;-70
2023/10/27 02:33:20;;;;;;;4.13;2.00;;;15.80;90.90;;;;;;5045376;28;20241;-70
2023/10/27 02:35:47;;;;;;;4.53;1.87;;;15.80;91.20;;;;;;5033111;28;20476;-69
2023/10/27 02:38:13;;;;;;;5.23;2.00;;;15.90;90.90;;;;;;5034228;28;20461;-70
2023/10/27 02:40:40;;;;;;;2.80;1.60;;;15.90;90.80;;;;;;5040641;28;20452;-69
2023/10/27 02:43:07;;;;;;;4.87;1.80;;;15.90;90.70;;;;;;5035109;28;20855;-70
2023/10/27 02:45:34;;;;;;;3.97;2.20;;;16.00;90.70;;;;;;5052424;28;20498;-70
2023/10/27 02:48:01;;;;;;;4.23;2.10;;;16.00;90.90;;;;;;5052330;28;20448;-69
2023/10/27 02:50:31;;;;;;;4.63;1.70;;;15.90;90.60;;;;;;5050376;28;20476;-69
2023/10/27 02:52:58;;;;;;;7.33;1.97;;;15.90;90.80;;;;;;5033597;28;20937;-69
2023/10/27 02:55:24;;;;;;;5.20;1.83;;;16.00;90.70;;;;;;5045694;28;20460;-70
2023/10/27 02:57:51;;;;;;;3.87;1.73;;;16.00;90.60;;;;;;5034114;28;20452;-70
2023/10/27 03:00:19;;;;;;;5.23;1.70;;;16.00;90.60;;;;;;5041764;28;20816;-69
2023/10/27 03:02:47;;;;;;;5.13;2.20;;;16.00;90.60;;;;;;5051700;28;20503;-69
2023/10/27 03:05:14;;;;;;;3.60;1.77;;;16.10;90.60;;;;;;5043177;28;20448;-69
2023/10/27 03:07:42;;;;;;;5.90;2.03;;;16.10;90.50;;;;;;5052191;28;20496;-69
2023/10/27 03:10:09;;;;;;;4.27;1.90;;;16.10;90.80;;;;;;5052306;28;20456;-69
2023/10/27 03:12:36;;;;;;;6.33;1.87;;;16.10;90.50;;;;;;5039696;28;20875;-69
2023/10/27 03:15:03;;;;;;;5.50;1.90;;;16.10;90.50;;;;;;5034112;28;20455;-70
2023/10/27 03:17:30;;;;;;;3.50;2.03;;;16.20;90.50;;;;;;5032610;28;20484;-69
2023/10/27 03:19:57;;;;;;;4.23;1.73;;;16.20;90.40;;;;;;5033321;28;20508;-70
2023/10/27 03:22:24;;;;;;;4.60;1.77;;;16.10;90.40;;;;;;5048927;28;20449;-70
2023/10/27 03:24:52;;;;;;;5.53;1.87;;;16.10;90.40;;;;;;5035981;28;20485;-70
2023/10/27 03:27:19;;;;;;;3.47;1.53;;;16.10;90.40;;;;;;5032273;28;20485;-69
2023/10/27 03:29:46;;;;;;;4.03;2.10;;;16.10;90.40;;;;;;5032414;28;20452;-70
2023/10/27 03:32:12;;;;;;;3.57;1.80;;;16.20;90.40;;;;;;5035426;28;20460;-69
2023/10/27 03:34:39;;;;;;;3.80;1.50;;;16.20;90.40;;;;;;5040880;28;20448;-69
2023/10/27 03:37:06;;;;;;;7.53;2.10;;;16.10;90.40;;;;;;5044925;28;20475;-69
2023/10/27 03:39:33;;;;;;;3.43;1.90;;;16.10;90.40;;;;;;5039621;28;20452;-69
2023/10/27 03:42:01;;;;;;;5.93;2.17;;;16.20;90.40;;;;;;5042632;28;20486;-70
2023/10/27 03:44:28;;;;;;;3.30;1.90;;;16.20;90.50;;;;;;5046494;28;20731;-68
2023/10/27 03:46:55;;;;;;;4.23;1.70;;;16.10;90.60;;;;;;5045712;28;20572;-70
2023/10/27 03:49:22;;;;;;;4.53;1.77;;;16.10;90.80;;;;;;5051760;28;20464;-70
2023/10/27 03:51:48;;;;;;;4.27;1.93;;;16.10;90.50;;;;;;5052072;28;20831;-70
2023/10/27 03:54:15;;;;;;;2.67;1.50;;;16.10;90.40;;;;;;5042311;28;20484;-70
2023/10/27 03:56:42;;;;;;;3.77;1.67;;;16.10;90.40;;;;;;5051657;28;20443;-70
2023/10/27 03:59:11;;;;;;;4.13;1.53;;;16.10;90.40;;;;;;5051725;28;20445;-70
2023/10/27 04:01:40;;;;;;;6.03;1.80;;;16.10;90.40;;;;;;5051999;28;20440;-69
2023/10/27 04:04:07;;;;;;;4.93;1.57;;;16.10;90.40;;;;;;5042300;28;20507;-70
2023/10/27 04:06:33;;;;;;;3.33;1.53;;;16.10;90.40;;;;;;5036116;28;20889;-70
2023/10/27 04:09:00;;;;;;;4.70;1.77;;;16.10;90.40;;;;;;5042259;28;20459;-69
2023/10/27 04:11:27;;;;;;;3.43;1.50;;;16.10;90.40;;;;;;5036193;28;20484;-70
2023/10/27 04:13:54;;;;;;;4.93;1.50;;;16.10;90.40;;;;;;4999138;28;20461;-70
2023/10/27 04:16:22;;;;;;;3.50;1.97;;;16.00;90.50;;;;;;5035388;28;20452;-70
2023/10/27 04:18:49;;;;;;;3.33;1.53;;;16.00;90.40;;;;;;5036011;28;20449;-69
2023/10/27 04:21:16;;;;;;;4.07;1.70;;;16.00;90.50;;;;;;5041189;28;20441;-70
2023/10/27 04:23:44;;;;;;;3.30;1.70;;;16.00;90.50;;;;;;5055139;28;20492;-70
2023/10/27 04:26:11;;;;;;;3.70;1.60;;;16.00;90.40;;;;;;5048891;28;20488;-70
2023/10/27 04:28:38;;;;;;;4.37;1.83;;;16.00;90.50;;;;;;5046016;28;20498;-69
2023/10/27 04:31:05;;;;;;;2.17;1.50;;;16.00;90.40;;;;;;5055642;28;20475;-70
2023/10/27 04:33:36;;;;;;;5.13;2.00;;;16.00;90.40;;;;;;5049528;28;20448;-69
2023/10/27 04:36:03;;;;;;;3.43;1.70;;;16.00;90.40;;;;;;5039822;28;20551;-70
2023/10/27 04:38:30;;;;;;;7.13;1.70;;;16.00;90.40;;;;;;5045721;28;20452;-70
2023/10/27 04:40:57;;;;;;;6.23;2.00;;;16.00;90.40;;;;;;5051392;28;20567;-70
2023/10/27 04:43:24;;;;;;;3.53;1.50;;;16.00;90.40;;;;;;5041872;28;20491;-69
2023/10/27 04:45:51;;;;;;;7.30;1.90;;;16.00;90.30;;;;;;5041952;28;20500;-70
2023/10/27 04:48:17;;;;;;;2.47;1.57;;;16.00;90.30;;;;;;5041343;28;20453;-69
2023/10/27 04:50:52;;;;;;;5.03;1.60;;;16.00;90.30;;;;;;5034779;28;20453;-70
2023/10/27 04:53:19;;;;;;;4.70;1.77;;;16.00;90.30;;;;;;5039517;28;20554;-69
2023/10/27 04:55:45;;;;;;;3.43;1.60;;;16.00;90.40;;;;;;5051073;28;20944;-70
2023/10/27 04:58:12;;;;;;;3.40;1.77;;;16.00;90.40;;;;;;5045568;28;20478;-70
2023/10/27 05:00:39;;;;;;;6.07;2.00;;;16.00;90.40;;;;;;5047041;28;20554;-70
2023/10/27 05:03:07;;;;;;;2.67;1.70;;;16.00;90.40;;;;;;5071332;28;20555;-69
2023/10/27 05:05:34;;;;;;;2.73;1.83;;;16.00;90.40;;;;;;5051833;28;20440;-70
2023/10/27 05:08:02;;;;;;;5.97;1.70;;;16.00;90.50;;;;;;5006806;28;20572;-70
2023/10/27 05:10:29;;;;;;;3.70;1.70;;;16.00;90.60;;;;;;5035951;28;20468;-69
2023/10/27 05:12:56;;;;;;;4.37;2.70;;;16.00;90.60;;;;;;5048388;28;20527;-69
2023/10/27 05:15:23;;;;;;;6.13;2.20;;;16.00;90.60;;;;;;5037427;28;20476;-69
2023/10/27 05:17:50;;;;;;;5.30;2.00;;;16.00;90.60;;;;;;5053524;28;20447;-70
2023/10/27 05:20:17;;;;;;;5.17;2.10;;;16.00;90.60;;;;;;5052516;28;20468;-70
2023/10/27 05:22:46;;;;;;;5.30;1.80;;;16.00;90.60;;;;;;5053551;28;20808;-70
2023/10/27 05:25:14;;;;;;;4.30;2.17;;;15.90;90.60;;;;;;5051413;28;20476;-70
2023/10/27 05:27:42;;;;;;;3.07;1.70;;;15.90;90.70;;;;;;5033415;28;20489;-70
2023/10/27 05:30:10;;;;;;;3.93;1.70;;;15.80;90.80;;;;;;5042114;28;20453;-69
2023/10/27 05:32:36;;;;;;;4.50;2.40;;;15.80;90.90;;;;;;5051388;28;20819;-70
2023/10/27 05:35:04;;;;;;;3.60;2.00;;;15.70;90.90;;;;;;5045410;28;20475;-70
2023/10/27 05:37:31;;;;;;;3.70;1.60;;;15.60;91.00;;;;;;5037785;28;20533;-70
2023/10/27 05:39:57;;;;;;;3.13;1.80;;;15.50;91.40;;;;;;5047408;28;20474;-70
2023/10/27 05:42:27;;;;;;;2.63;1.47;;;15.40;91.40;;;;;;5013774;28;1123082;-70
2023/10/27 05:44:54;;;;;;;2.97;1.80;;;15.40;91.50;;;;;;5040554;28;20278;-70
2023/10/27 05:47:20;;;;;;;2.00;1.70;;;15.50;91.50;;;;;;5051343;28;20522;-70
2023/10/27 05:49:47;;;;;;;3.40;1.63;;;15.40;91.40;;;;;;5051311;28;20555;-70
2023/10/27 05:52:14;;;;;;;3.83;2.10;;;15.40;91.80;;;;;;5038417;28;20815;-70
2023/10/27 05:54:43;;;;;;;4.03;1.80;;;15.40;91.50;;;;;;5045309;28;20528;-69
2023/10/27 05:57:10;;;;;;;3.13;1.90;;;15.30;91.50;;;;;;5044438;28;20449;-69
2023/10/27 05:59:39;;;;;;;1.90;1.70;;;15.30;91.60;;;;;;5033680;28;20475;-69
2023/10/27 06:02:06;;;;;;;3.53;1.70;;;15.20;91.70;;;;;;5035742;28;20537;-70
2023/10/27 06:04:34;;;;;;;1.77;1.50;;;15.20;91.80;;;;;;5061345;28;20454;-70
2023/10/27 06:07:01;;;;;;;2.17;1.37;;;15.10;91.70;;;;;;5053707;28;20853;-69
2023/10/27 06:09:29;;;;;;;3.03;1.40;;;15.10;91.60;;;;;;5052827;28;20440;-70
2023/10/27 06:11:56;;;;;;;2.10;1.50;;;15.10;91.70;;;;;;5052310;28;20502;-70
2023/10/27 06:14:23;;;;;;;1.80;1.27;;;15.10;91.50;;;;;;5052771;28;20540;-69
2023/10/27 06:16:51;;;;;;;1.47;1.23;;;15.00;91.60;;;;;;5052612;28;20462;-69
2023/10/27 06:19:19;;;;;;;1.70;1.27;;;15.00;91.60;;;;;;5048224;28;20482;-69
2023/10/27 06:21:47;;;;;;;1.93;1.37;;;15.10;91.50;;;;;;5046206;28;20892;-69
2023/10/27 06:24:14;;;;;;;2.70;0.80;;;15.10;91.60;;;;;;5052683;28;20480;-69
2023/10/27 06:26:41;;;;;;;2.17;1.23;;;15.20;91.60;;;;;;5052706;28;20597;-69
2023/10/27 06:29:07;;;;;;;3.97;1.10;;;15.10;91.50;;;;;;5052283;28;20551;-69
2023/10/27 06:31:35;;;;;;;2.80;1.13;;;15.20;91.50;;;;;;5050950;28;20500;-69
2023/10/27 06:34:03;;;;;;;1.13;1.03;;;15.20;91.50;;;;;;5052141;28;20471;-69
2023/10/27 06:36:32;;;;;;;1.97;1.17;;;15.20;91.40;;;;;;5042761;28;20543;-70
2023/10/27 06:38:59;;;;;;;1.40;0.80;;;15.10;91.50;;;;;;5031490;28;20495;-69
2023/10/27 06:41:26;;;;;;;1.53;1.00;;;15.20;91.40;;;;;;5031633;28;20497;-69
2023/10/27 06:43:53;;;;;;;1.20;1.10;;;15.20;91.40;;;;;;5038570;28;20542;-69
2023/10/27 06:46:20;;;;;;;2.07;1.43;;;15.20;91.30;;;;;;5051519;28;20440;-69
2023/10/27 06:48:47;;;;;;;0.77;0.77;;;15.20;91.30;;;;;;5051790;28;20487;-69
2023/10/27 06:51:15;;;;;;;1.03;0.90;;;15.20;91.20;;;;;;5051550;28;20444;-69
2023/10/27 06:53:43;;;;;;;2.03;1.20;;;15.20;91.20;;;;;;5051868;28;20527;-69
2023/10/27 06:56:10;;;;;;;2.00;1.07;;;15.20;91.10;;;;;;5051622;28;20541;-69
2023/10/27 06:58:36;;;;;;;1.27;1.10;;;15.30;91.10;;;;;;5051679;28;20441;-69
2023/10/27 07:01:07;;;;;;;2.80;1.20;;;15.30;91.40;;;;;;5051623;28;20479;-69
2023/10/27 07:03:35;;;;;;;1.30;0.93;;;15.30;91.00;;;;;;5051354;28;20480;-69
2023/10/27 07:06:03;;;;;;;2.97;0.97;;;15.30;90.90;;;;;;5051461;28;20460;-69
2023/10/27 07:08:32;;;;;;;1.07;1.00;;;15.40;91.00;;;;;;5051553;28;20479;-69
2023/10/27 07:10:59;;;;;;;2.40;1.10;;;15.40;91.00;;;;;;5051547;28;20446;-69
2023/10/27 07:13:26;;;;;;;2.80;1.20;;;15.50;91.00;;;;;;5047658;28;20936;-69
2023/10/27 07:15:53;;;;;;;1.03;0.90;;;15.50;91.00;;;;;;5031212;28;20508;-69
2023/10/27 07:18:20;;;;;;;2.10;1.53;;;15.40;90.90;;;;;;5032287;28;20455;-69
2023/10/27 07:20:47;;;;;;;0.80;0.80;;;15.40;90.90;;;;;;5037019;28;20452;-69
2023/10/27 07:23:15;;;;;;;2.60;1.30;;;15.50;90.90;;;;;;5054997;28;20586;-69
2023/10/27 07:25:44;;;;;;;1.40;1.00;;;15.50;90.80;;;;;;5036401;28;20449;-69
2023/10/27 07:28:10;;;;;;;1.33;1.23;;;15.60;90.80;;;;;;5052979;28;20883;-68
2023/10/27 07:30:38;;;;;;;1.80;1.00;;;15.60;90.80;;;;;;5052814;28;20457;-69
2023/10/27 07:33:05;;;;;;;2.10;1.30;;;15.60;90.70;;;;;;5050924;28;20539;-69
2023/10/27 07:35:32;;;;;;;1.30;1.07;;;15.60;90.70;;;;;;5051922;28;20558;-69
2023/10/27 07:37:58;;;;;;;1.10;1.00;;;15.60;90.50;;;;;;5051486;28;20452;-69
2023/10/27 07:40:26;;;;;;;1.57;1.47;;;15.70;90.70;;;;;;5043518;28;20485;-69
2023/10/27 07:42:57;;;;;;;1.43;1.07;;;15.80;90.60;;;;;;5030718;28;20588;-68
2023/10/27 07:45:25;;;;;;;1.00;0.93;;;15.80;90.40;;;;;;5031968;28;20453;-69
2023/10/27 07:47:52;;;;;;;1.80;1.10;;;15.80;90.30;;;;;;5031119;28;20495;-69
2023/10/27 07:50:19;;;;;;;1.13;1.03;;;15.80;90.30;;;;;;5031070;28;20449;-69
2023/10/27 07:52:46;;;;;;;1.57;1.43;;;15.90;90.40;;;;;;5032338;28;20451;-69
2023/10/27 07:55:13;;;;;;;1.27;1.17;;;15.80;90.20;;;;;;5050796;28;20555;-69
2023/10/27 07:57:40;;;;;;;1.83;1.00;;;15.70;90.50;;;;;;5050525;28;20462;-69
2023/10/27 08:00:10;;;;;;;1.50;1.10;;;15.70;90.60;;;;;;5050979;28;20804;-69
2023/10/27 08:02:38;;;;;;;2.10;1.90;;;15.70;90.60;;;;;;5050558;28;20507;-69
2023/10/27 08:05:06;;;;;;;0.90;0.90;;;15.70;90.70;;;;;;5050979;28;20448;-68
2023/10/27 08:07:34;;;;;;;2.17;0.93;;;15.70;90.60;;;;;;5050548;28;20487;-69
2023/10/27 08:10:01;;;;;;;1.53;0.97;;;15.60;90.50;;;;;;5050789;28;20476;-68
2023/10/27 08:12:28;;;;;;;1.13;0.93;;;15.60;90.80;;;;;;5050449;28;20483;-69
2023/10/27 08:14:55;;;;;;;3.83;1.63;;;15.60;90.60;;;;;;5032645;28;20455;-68
2023/10/27 08:17:23;;;;;;;1.27;0.87;;;15.50;90.70;;;;;;5050674;28;20543;-69
2023/10/27 08:19:51;;;;;;;1.23;0.63;;;15.50;90.70;;;;;;5050660;28;20468;-69
2023/10/27 08:22:18;;;;;;;1.70;1.40;;;15.50;90.70;;;;;;5050573;28;20809;-68
2023/10/27 08:24:45;;;;;;;1.20;1.10;;;15.50;90.90;;;;;;5033526;28;20485;-69
2023/10/27 08:27:12;;;;;;;0.70;0.70;;;15.50;91.00;;;;;;5030037;28;21035;-68
2023/10/27 08:29:39;;;;;;;1.00;0.80;;;15.40;90.90;;;;;;5030407;28;20496;-69
2023/10/27 08:32:06;;;;;;;1.63;0.90;;;15.40;91.00;;;;;;5031060;28;21178;-69
2023/10/27 08:34:36;;;;;;;1.37;0.90;;;15.40;91.30;;;;;;5012654;28;20527;-68
2023/10/27 08:37:03;;;;;;;2.63;1.20;;;15.40;91.10;;;;;;5013051;28;20447;-68
2023/10/27 08:39:33;;;;;;;1.27;0.90;;;15.50;91.00;;;;;;5030272;28;20476;-69
2023/10/27 08:42:01;;;;;;;0.90;0.90;;;15.60;91.10;;;;;;5030031;28;20515;-69
2023/10/27 08:44:28;;;;;;;3.03;1.87;;;15.60;90.80;;;;;;5032424;28;20448;-69
2023/10/27 08:46:55;;;;;;;1.70;1.60;;;15.50;91.00;;;;;;5046330;28;20531;-69
2023/10/27 08:49:22;;;;;;;1.53;1.43;;;15.50;90.90;;;;;;5070278;28;20493;-69
2023/10/27 08:51:51;;;;;;;1.90;1.80;;;15.50;91.00;;;;;;5070096;28;20445;-68
2023/10/27 08:54:17;;;;;;;1.40;1.30;;;15.50;90.70;;;;;;5050410;28;20463;-68
2023/10/27 08:56:44;;;;;;;1.53;1.20;;;15.60;90.80;;;;;;5041350;28;20885;-69
2023/10/27 08:59:11;;;;;;;1.13;1.10;;;15.60;90.80;;;;;;5030257;28;20658;-69
2023/10/27 09:01:38;;;;;;;1.63;0.60;;;15.70;90.80;;;;;;5043599;28;20537;-68
2023/10/27 09:04:09;;;;;;;1.70;0.93;;;15.90;90.70;;;;;;5054082;28;20840;-69
2023/10/27 09:06:36;;;;;;;1.73;1.40;;;15.90;90.50;;;;;;5052233;28;20811;-68
2023/10/27 09:09:09;;;;;;;1.30;1.20;;;15.90;90.40;;;;;;5053581;28;20510;-68
2023/10/27 09:11:42;;;;;;;2.40;2.20;;;15.90;90.60;;;;;;5044427;28;20825;-69
2023/10/27 09:14:20;;;;;;;1.10;0.93;;;15.90;90.70;;;;;;4999531;28;20445;-69
2023/10/27 09:16:48;;;;;;;4.07;3.47;;;15.90;90.70;;;;;;5033845;28;20533;-69
2023/10/27 09:19:20;;;;;;;1.23;1.07;;;15.90;90.70;;;;;;5033546;28;20968;-69
2023/10/27 09:21:47;;;;;;;1.37;0.90;;;15.80;90.90;;;;;;5039918;28;20964;-69
2023/10/27 09:24:22;;;;;;;1.33;1.00;;;15.80;91.10;;;;;;5048258;28;20531;-68
2023/10/27 09:26:49;;;;;;;1.70;1.00;;;15.90;91.00;;;;;;5044334;28;20568;-69
2023/10/27 09:29:17;;;;;;;1.93;1.10;;;15.80;90.90;;;;;;5033381;28;20542;-69
2023/10/27 09:31:44;;;;;;;1.27;1.00;;;15.80;90.90;;;;;;5052454;28;20511;-69
2023/10/27 09:34:19;;;;;;;1.50;1.40;;;15.80;90.90;;;;;;5053063;28;20788;-68
2023/10/27 09:36:50;;;;;;;0.90;0.90;;;15.90;91.00;;;;;;5053499;28;20456;-68
2023/10/27 09:39:19;;;;;;;2.43;1.70;;;16.00;90.90;;;;;;5052688;28;20464;-68
2023/10/27 09:41:49;;;;;;;1.30;1.20;;;16.10;91.10;;;;;;5043698;28;20484;-68
2023/10/27 09:44:17;;;;;;;2.03;1.00;;;16.00;90.80;;;;;;5053063;28;20506;-68
2023/10/27 09:46:53;;;;;;;1.40;1.10;;;16.10;90.90;;;;;;5052696;28;20487;-69
2023/10/27 09:49:27;;;;;;;2.10;1.30;;;16.20;90.80;;;;;;5033121;28;20484;-69
2023/10/27 09:52:00;;;;;;;3.33;1.23;;;16.20;90.70;;;;;;5033522;28;20536;-69
2023/10/27 09:54:31;;;;;;;2.10;1.20;;;16.20;90.70;;;;;;5046206;28;20480;-69
2023/10/27 09:57:01;;;;;;;1.43;1.17;;;16.20;90.60;;;;;;5048321;28;20459;-69
2023/10/27 09:59:30;;;;;;;3.60;1.27;;;16.30;90.60;;;;;;5039359;28;20473;-68
2023/10/27 10:01:57;;;;;;;2.00;1.80;;;16.40;90.50;;;;;;5033893;28;20511;-68
2023/10/27 10:05:00;;;;;;;2.83;1.30;;;16.30;90.50;;;;;;4997929;28;20535;-69
2023/10/27 10:07:33;;;;;;;2.07;1.40;;;16.30;90.70;;;;;;5045191;28;20948;-69
2023/10/27 10:10:15;;;;;;;2.30;1.17;;;16.30;90.80;;;;;;5051049;28;20436;-69
2023/10/27 10:13:06;;;;;;;1.77;1.43;;;16.20;90.90;;;;;;5039824;28;20472;-69
2023/10/27 10:15:34;;;;;;;4.00;2.10;;;16.10;91.10;;;;;;5038455;28;20542;-69
2023/10/27 10:18:02;;;;;;;4.13;3.77;;;16.20;91.10;;;;;;5072797;28;20467;-69
2023/10/27 10:20:57;;;;;;;2.27;1.77;;;16.10;91.20;;;;;;5072701;28;20447;-69
2023/10/27 10:23:26;;;;;;;1.37;1.10;;;16.20;91.20;;;;;;5033239;28;20444;-69
2023/10/27 10:25:54;;;;;;;3.47;1.50;;;16.10;91.40;;;;;;5051988;28;20444;-68
2023/10/27 10:28:33;;;;;;;2.40;1.60;;;16.30;91.40;;;;;;5032037;28;20485;-68
2023/10/27 10:31:23;;;;;;;2.40;1.60;;;16.40;91.10;;;;;;5034388;28;20841;-69
2023/10/27 10:33:51;;;;;;;5.37;1.73;;;16.70;91.30;;;;;;5034503;28;20454;-69
2023/10/27 10:36:27;;;;;;;2.27;1.13;;;16.90;90.90;;;;;;5032637;28;20523;-68
2023/10/27 10:38:58;;;;;;;2.67;1.53;;;17.00;90.00;;;;;;5032567;28;20500;-69
2023/10/27 10:41:59;;;;;;;2.07;1.60;;;17.00;90.00;;;;;;4997126;28;20453;-69
2023/10/27 10:44:32;;;;;;;3.93;1.33;;;17.20;89.90;;;;;;5038897;28;20515;-69
2023/10/27 10:47:09;;;;;;;2.67;1.40;;;17.40;88.70;;;;;;5050961;28;20441;-68
2023/10/27 10:49:36;;;;;;;3.20;1.40;;;17.70;87.50;;;;;;5050910;28;20482;-67
2023/10/27 10:52:03;;;;;;;2.87;1.47;;;17.90;88.50;;;;;;5033369;28;21174;-68
2023/10/27 10:54:31;;;;;;;6.37;1.93;;;18.20;88.20;;;;;;5036971;28;20510;-68
2023/10/27 10:57:09;;;;;;;3.70;1.50;;;18.20;86.30;;;;;;5031014;28;20544;-68
2023/10/27 10:59:37;;;;;;;2.77;1.40;;;18.10;85.00;;;;;;5046103;28;20240;-68
2023/10/27 11:02:05;;;;;;;3.17;1.40;;;18.00;85.70;;;;;;5050266;28;20918;-68
2023/10/27 11:04:34;;;;;;;5.30;1.97;;;18.00;85.80;;;;;;5049922;28;20233;-68
2023/10/27 11:07:02;;;;;;;2.77;1.30;;;17.80;84.70;;;;;;5049678;28;20206;-68
2023/10/27 11:09:31;;;;;;;5.67;1.73;;;17.70;84.90;;;;;;5048530;28;20516;-68
2023/10/27 11:11:58;;;;;;;6.07;2.17;;;17.50;85.60;;;;;;5049048;28;20502;-67
2023/10/27 11:14:25;;;;;;;3.87;1.60;;;17.30;85.80;;;;;;5049605;28;20476;-68
2023/10/27 11:16:58;;;;;;;4.70;1.67;;;17.30;86.50;;;;;;5049907;28;20555;-68
2023/10/27 11:19:25;;;;;;;2.60;1.30;;;17.30;86.70;;;;;;5047696;28;20432;-68
2023/10/27 11:21:53;;;;;;;4.90;2.00;;;17.30;86.00;;;;;;5042228;28;20449;-69
2023/10/27 11:24:22;;;;;;;4.10;1.70;;;17.20;85.70;;;;;;5048365;28;20460;-68
2023/10/27 11:26:49;;;;;;;5.33;1.77;;;17.10;86.40;;;;;;5048705;28;20539;-68
2023/10/27 11:29:16;;;;;;;3.50;1.70;;;17.10;86.80;;;;;;5050719;28;21021;-68
2023/10/27 11:31:45;;;;;;;5.30;1.97;;;17.20;86.90;;;;;;5050179;28;20551;-68
2023/10/27 11:34:20;;;;;;;3.33;1.63;;;17.20;86.90;;;;;;5051180;28;20464;-68
2023/10/27 11:37:00;;;;;;;4.10;1.40;;;17.10;87.30;;;;;;5050846;28;20566;-68
2023/10/27 11:39:27;;;;;;;2.17;1.50;;;16.90;86.60;;;;;;5050875;28;20454;-67
2023/10/27 11:41:58;;;;;;;3.07;1.10;;;16.80;87.50;;;;;;5050121;28;20543;-70
2023/10/27 11:44:25;;;;;;;2.03;1.30;;;16.70;87.80;;;;;;5048881;28;20460;-68
2023/10/27 11:46:56;;;;;;;3.70;1.47;;;16.70;88.20;;;;;;5048601;28;20839;-68
2023/10/27 11:49:25;;;;;;;3.67;1.60;;;16.50;88.70;;;;;;5050535;28;20492;-69
2023/10/27 11:51:54;;;;;;;3.40;1.30;;;16.40;89.60;;;;;;5050847;28;20452;-69
2023/10/27 11:54:21;;;;;;;2.60;1.50;;;16.30;90.00;;;;;;5051051;28;20444;-69
2023/10/27 11:56:48;;;;;;;2.43;1.30;;;16.30;90.10;;;;;;5050975;28;20565;-69
2023/10/27 11:59:17;;;;;;;2.07;1.30;;;16.10;90.20;;;;;;5050827;28;20444;-68
2023/10/27 12:01:44;;;;;;;1.57;0.97;;;16.10;90.20;;;;;;5047629;28;20895;-69
2023/10/27 12:04:11;;;;;;;2.47;1.40;;;16.20;90.30;;;;;;5050207;28;20460;-67
2023/10/27 12:06:40;;;;;;;3.17;1.20;;;16.30;90.40;;;;;;5050721;28;20483;-69
2023/10/27 12:09:07;;;;;;;2.57;1.20;;;16.40;90.30;;;;;;5050883;28;20889;-69
2023/10/27 12:11:34;;;;;;;1.30;1.20;;;16.40;90.10;;;;;;5050678;28;20436;-69
2023/10/27 12:14:01;;;;;;;3.67;1.50;;;16.40;90.20;;;;;;5049893;28;20491;-70
2023/10/27 12:16:29;;;;;;;2.43;1.70;;;16.40;90.50;;;;;;5050305;28;20458;-68
2023/10/27 12:18:56;;;;;;;4.03;1.50;;;16.50;90.60;;;;;;5050223;28;20455;-68
2023/10/27 12:21:25;;;;;;;4.20;1.60;;;16.70;90.20;;;;;;5050691;28;20555;-69
2023/10/27 12:23:54;;;;;;;4.30;1.80;;;16.80;90.30;;;;;;5050831;28;20440;-69
2023/10/27 12:26:21;;;;;;;5.90;1.50;;;17.00;90.00;;;;;;5050713;28;20527;-69
2023/10/27 12:28:48;;;;;;;2.57;1.50;;;17.30;90.10;;;;;;5050292;28;20571;-69
2023/10/27 12:31:16;;;;;;;3.03;1.50;;;17.60;89.80;;;;;;5015068;28;20532;-68
2023/10/27 12:33:44;;;;;;;5.50;1.57;;;17.70;88.80;;;;;;5049745;28;20475;-69
2023/10/27 12:36:12;;;;;;;2.47;1.20;;;17.80;89.10;;;;;;5052391;28;20443;-68
2023/10/27 12:38:41;;;;;;;5.27;1.37;;;18.20;88.90;;;;;;5054855;28;20439;-69
2023/10/27 12:41:12;;;;;;;1.97;1.10;;;18.60;88.20;;;;;;5054636;28;20243;-70
2023/10/27 12:43:40;;;;;;;1.57;0.93;;;19.10;86.00;;;;;;5052657;28;20226;-69
2023/10/27 12:46:10;;;;;;;1.70;1.20;;;19.00;85.00;;;;;;5034141;28;20238;-69
2023/10/27 12:48:37;;;;;;;3.90;1.23;;;18.80;84.40;;;;;;5051141;28;20198;-68
2023/10/27 12:51:05;;;;;;;2.97;1.80;;;18.60;84.00;;;;;;5054290;28;20209;-69